createdAt,value
2024-01-11T00:13:51.799Z,1.20
2024-01-11T00:18:48.504Z,1.30
2024-01-11T00:23:43.792Z,1.40
2024-01-11T00:26:14.193Z,1.10
2024-01-11T00:28:41.590Z,1.20
2024-01-11T00:31:08.914Z,0.90
2024-01-11T00:36:04.954Z,1.20
2024-01-11T00:38:32.556Z,1.10
2024-01-11T00:48:23.388Z,0.60
2024-01-11T00:55:46.356Z,0.90
2024-01-11T01:00:42.013Z,0.50
2024-01-11T01:03:09.440Z,0.70
2024-01-11T01:20:24.071Z,0.90
2024-01-11T01:22:54.231Z,0.50
2024-01-11T01:25:21.863Z,0.40
2024-01-11T01:37:40.931Z,0.40
2024-01-11T01:40:09.000Z,0.50
2024-01-11T01:42:36.438Z,0.50
2024-01-11T01:45:04.234Z,0.60
2024-01-11T01:47:32.954Z,0.60
2024-01-11T01:50:00.604Z,0.60
2024-01-11T01:52:28.268Z,0.60
2024-01-11T01:54:58.137Z,0.60
2024-01-11T01:57:26.440Z,0.60
2024-01-11T01:59:54.636Z,0.60
2024-01-11T02:02:23.317Z,0.60
2024-01-11T02:04:50.986Z,0.60
2024-01-11T02:07:19.828Z,0.60
2024-01-11T02:09:48.173Z,0.70
2024-01-11T02:12:16.844Z,0.50
2024-01-11T02:14:45.305Z,0.50
2024-01-11T02:22:22.089Z,0.80
2024-01-11T02:27:18.058Z,0.90
2024-01-11T02:29:47.041Z,0.80
2024-01-11T02:32:15.964Z,0.80
2024-01-11T02:34:44.264Z,0.90
2024-01-11T02:37:12.145Z,0.90
2024-01-11T02:39:40.577Z,0.90
2024-01-11T02:42:08.031Z,1.00
2024-01-11T02:44:38.016Z,1.00
2024-01-11T02:47:05.616Z,1.00
2024-01-11T02:49:33.064Z,1.00
2024-01-11T02:52:01.544Z,1.00
2024-01-11T02:54:28.954Z,1.00
2024-01-11T02:56:58.619Z,1.00
2024-01-11T02:59:26.367Z,1.00
2024-01-11T03:01:53.748Z,1.00
2024-01-11T03:04:21.355Z,1.10
2024-01-11T03:06:48.772Z,1.00
2024-01-11T03:09:16.143Z,1.00
2024-01-11T03:11:43.677Z,1.10
2024-01-11T03:14:11.159Z,1.50
2024-01-11T03:16:40.688Z,1.00
2024-01-11T03:19:08.264Z,1.00
2024-01-11T03:21:35.800Z,1.00
2024-01-11T03:24:03.232Z,1.00
2024-01-11T03:26:30.670Z,1.00
2024-01-11T03:28:58.399Z,1.00
2024-01-11T03:31:26.081Z,1.00
2024-01-11T03:33:53.512Z,1.00
2024-01-11T03:36:28.640Z,1.00
2024-01-11T03:38:56.854Z,1.00
2024-01-11T03:41:24.248Z,1.00
2024-01-11T03:43:53.719Z,0.90
2024-01-11T03:46:21.551Z,1.00
2024-01-11T03:48:49.346Z,1.00
2024-01-11T03:51:16.839Z,0.90
2024-01-11T03:53:44.586Z,0.90
2024-01-11T03:56:11.980Z,0.90
2024-01-11T03:58:43.040Z,0.90
2024-01-11T04:01:11.572Z,0.90
2024-01-11T04:03:39.333Z,0.90
2024-01-11T04:06:08.053Z,0.90
2024-01-11T04:08:36.154Z,0.90
2024-01-11T04:11:05.444Z,0.80
2024-01-11T04:13:33.287Z,0.80
2024-01-11T04:16:07.593Z,0.80
2024-01-11T04:18:36.250Z,0.80
2024-01-11T04:21:04.108Z,0.80
2024-01-11T04:23:31.928Z,0.80
2024-01-11T04:26:02.866Z,0.80
2024-01-11T04:28:30.241Z,0.80
2024-01-11T04:30:57.633Z,0.80
2024-01-11T04:33:25.439Z,0.80
2024-01-11T04:35:55.766Z,0.80
2024-01-11T04:38:23.248Z,0.80
2024-01-11T04:40:50.588Z,0.80
2024-01-11T04:43:17.976Z,0.80
2024-01-11T04:45:45.641Z,0.80
2024-01-11T04:48:13.302Z,0.80
2024-01-11T04:50:40.932Z,0.80
2024-01-11T04:53:08.626Z,0.80
2024-01-11T04:55:36.390Z,0.80
2024-01-11T04:58:04.822Z,0.80
2024-01-11T05:00:32.186Z,0.80
2024-01-11T05:03:00.360Z,0.80
2024-01-11T05:05:27.847Z,0.80
2024-01-11T05:07:55.260Z,0.80
2024-01-11T05:10:22.568Z,0.70
2024-01-11T05:12:50.051Z,0.70
2024-01-11T05:15:18.884Z,0.70
2024-01-11T05:17:46.434Z,0.70
2024-01-11T05:20:14.003Z,0.70
2024-01-11T05:22:41.351Z,0.70
2024-01-11T05:25:09.011Z,0.70
2024-01-11T05:27:36.432Z,0.70
2024-01-11T05:30:04.541Z,0.70
2024-01-11T05:32:32.089Z,0.70
2024-01-11T05:34:59.560Z,0.70
2024-01-11T05:37:27.000Z,0.60
2024-01-11T05:39:55.879Z,0.60
2024-01-11T05:42:23.734Z,0.60
2024-01-11T05:44:53.262Z,0.60
2024-01-11T05:47:20.683Z,0.60
2024-01-11T05:49:49.229Z,0.60
2024-01-11T05:52:18.100Z,0.70
2024-01-11T05:54:45.416Z,0.60
2024-01-11T05:57:14.439Z,0.60
2024-01-11T05:59:48.624Z,0.60
2024-01-11T06:02:16.404Z,0.50
2024-01-11T06:04:44.741Z,0.60
2024-01-11T06:07:12.835Z,0.50
2024-01-11T06:09:40.212Z,0.50
2024-01-11T06:12:07.574Z,0.60
2024-01-11T06:14:35.021Z,0.60
2024-01-11T06:17:02.937Z,0.60
2024-01-11T06:19:30.493Z,0.50
2024-01-11T06:21:58.028Z,1.20
2024-01-11T06:24:26.898Z,0.70
2024-01-11T06:26:54.552Z,0.60
2024-01-11T06:29:22.224Z,0.60
2024-01-11T06:31:49.565Z,0.70
2024-01-11T06:34:17.572Z,0.70
2024-01-11T06:36:45.398Z,0.80
2024-01-11T06:39:14.158Z,0.80
2024-01-11T06:41:41.710Z,0.80
2024-01-11T06:44:09.096Z,0.80
2024-01-11T06:46:37.272Z,0.80
2024-01-11T06:49:04.762Z,0.80
2024-01-11T06:51:32.716Z,0.80
2024-01-11T06:54:02.150Z,0.80
2024-01-11T06:56:29.620Z,0.80
2024-01-11T06:58:57.327Z,0.80
2024-01-11T07:01:24.728Z,0.80
2024-01-11T07:03:53.777Z,0.80
2024-01-11T07:08:50.763Z,0.70
2024-01-11T07:11:18.341Z,0.80
2024-01-11T07:13:45.746Z,0.70
2024-01-11T07:16:16.073Z,0.70
2024-01-11T07:18:44.052Z,0.60
2024-01-11T07:21:11.474Z,0.60
2024-01-11T07:23:38.937Z,0.60
2024-01-11T07:26:06.339Z,0.60
2024-01-11T07:28:33.800Z,0.60
2024-01-11T07:31:01.212Z,0.60
2024-01-11T07:33:28.950Z,0.70
2024-01-11T07:35:56.976Z,1.50
2024-01-11T07:38:24.645Z,0.60
2024-01-11T07:40:52.475Z,0.70
2024-01-11T07:43:19.917Z,0.90
2024-01-11T07:45:47.303Z,1.20
2024-01-11T07:48:14.823Z,0.50
2024-01-11T07:50:42.440Z,0.60
2024-01-11T07:53:10.141Z,0.60
2024-01-11T07:55:38.673Z,0.40
2024-01-11T07:58:06.028Z,0.60
2024-01-11T08:03:01.823Z,0.60
2024-01-11T08:05:29.316Z,0.60
2024-01-11T08:07:56.658Z,0.50
2024-01-11T08:10:23.999Z,0.70
2024-01-11T08:15:19.381Z,0.60
2024-01-11T08:20:16.692Z,0.40
2024-01-11T08:22:44.385Z,0.90
2024-01-11T08:25:11.807Z,0.70
2024-01-11T08:27:39.174Z,0.60
2024-01-11T08:30:07.575Z,0.70
2024-01-11T08:32:40.179Z,0.70
2024-01-11T08:35:08.134Z,0.70
2024-01-11T08:37:35.713Z,0.90
2024-01-11T08:40:05.667Z,0.80
2024-01-11T08:42:33.780Z,0.80
2024-01-11T08:45:07.555Z,0.80
2024-01-11T08:47:40.067Z,0.80
2024-01-11T08:50:08.334Z,0.90
2024-01-11T08:52:35.784Z,0.90
2024-01-11T08:55:03.453Z,2.00
2024-01-11T08:59:59.122Z,0.90
2024-01-11T09:02:27.730Z,1.00
2024-01-11T09:04:58.454Z,1.10
2024-01-11T09:07:26.348Z,2.10
2024-01-11T09:09:57.404Z,1.10
2024-01-11T09:12:25.367Z,1.10
2024-01-11T09:14:54.672Z,1.20
2024-01-11T09:17:23.217Z,1.20
2024-01-11T09:19:53.066Z,1.60
2024-01-11T09:22:20.454Z,1.30
2024-01-11T09:27:15.397Z,1.30
2024-01-11T09:29:46.636Z,1.40
2024-01-11T09:32:14.805Z,1.60
2024-01-11T09:37:10.417Z,1.70
2024-01-11T09:39:37.809Z,2.00
2024-01-11T09:42:13.535Z,1.80
2024-01-11T09:44:42.964Z,1.70
2024-01-11T09:47:16.041Z,1.70
2024-01-11T09:49:46.416Z,1.90
2024-01-11T09:52:15.965Z,1.80
2024-01-11T09:57:11.861Z,1.90
2024-01-11T09:59:41.444Z,2.20
2024-01-11T10:02:12.410Z,2.20
2024-01-11T10:04:43.409Z,2.10
2024-01-11T10:07:11.651Z,2.50
2024-01-11T10:09:39.120Z,2.20
2024-01-11T10:12:06.841Z,2.30
2024-01-11T10:14:34.340Z,2.30
2024-01-11T10:17:03.180Z,2.40
2024-01-11T10:19:30.818Z,2.80
2024-01-11T10:21:59.897Z,2.50
2024-01-11T10:27:01.026Z,2.70
2024-01-11T10:29:37.975Z,2.70
2024-01-11T10:32:05.671Z,2.90
2024-01-11T10:34:32.903Z,2.20
2024-01-11T10:37:00.960Z,2.90
2024-01-11T10:39:28.805Z,3.10
2024-01-11T10:42:08.862Z,3.30
2024-01-11T10:47:08.727Z,3.30
2024-01-11T10:49:42.001Z,3.40
2024-01-11T10:52:11.224Z,3.30
2024-01-11T10:54:41.005Z,3.60
2024-01-11T10:59:39.781Z,4.00
2024-01-11T11:02:13.320Z,3.90
2024-01-11T11:04:42.928Z,4.30
2024-01-11T11:07:11.197Z,4.20
2024-01-11T11:09:45.205Z,4.30
2024-01-11T11:12:15.891Z,4.40
2024-01-11T11:14:45.620Z,4.70
2024-01-11T11:17:16.013Z,4.30
2024-01-11T11:19:43.936Z,4.60
2024-01-11T11:22:16.508Z,4.60
2024-01-11T11:24:44.781Z,4.80
2024-01-11T11:27:15.825Z,2.20
2024-01-11T11:32:12.194Z,4.90
2024-01-11T11:34:46.508Z,5.00
2024-01-11T11:37:23.432Z,5.20
2024-01-11T11:39:50.838Z,5.40
2024-01-11T11:42:18.560Z,5.50
2024-01-11T11:44:51.160Z,5.70
2024-01-11T11:47:25.299Z,5.80
2024-01-11T11:50:12.812Z,5.70
2024-01-11T11:52:43.049Z,5.50
2024-01-11T12:00:06.965Z,5.20
2024-01-11T12:02:40.852Z,5.60
2024-01-11T12:05:09.385Z,5.30
2024-01-11T12:07:36.878Z,5.60
2024-01-11T12:10:07.479Z,5.30
2024-01-11T12:12:38.587Z,5.50
2024-01-11T12:15:07.134Z,5.70
2024-01-11T12:20:02.811Z,5.00
2024-01-11T12:22:30.351Z,5.20
2024-01-11T12:24:57.818Z,5.20
2024-01-11T12:27:25.365Z,5.10
2024-01-11T12:29:58.930Z,5.10
2024-01-11T12:37:23.968Z,4.60
2024-01-11T12:39:57.391Z,5.10
2024-01-11T12:42:24.799Z,5.00
2024-01-11T12:44:54.348Z,5.00
2024-01-11T12:47:22.936Z,5.00
2024-01-11T12:52:20.969Z,4.70
2024-01-11T12:54:48.359Z,4.70
2024-01-11T12:57:22.415Z,5.20
2024-01-11T13:04:48.093Z,4.90
2024-01-11T13:09:44.899Z,4.90
2024-01-11T13:14:41.817Z,5.00
2024-01-11T13:17:09.465Z,5.00
2024-01-11T13:19:37.013Z,4.70
2024-01-11T13:24:32.415Z,4.60
2024-01-11T13:29:29.349Z,4.80
2024-01-11T13:31:56.708Z,4.80
2024-01-11T13:36:51.807Z,4.70
2024-01-11T13:39:19.480Z,4.50
2024-01-11T13:46:44.903Z,4.70
2024-01-11T13:49:12.927Z,4.80
2024-01-11T13:54:23.175Z,4.60
2024-01-11T13:56:53.313Z,4.70
2024-01-11T13:59:21.340Z,4.60
2024-01-11T14:01:50.380Z,4.80
2024-01-11T14:04:18.685Z,4.20
2024-01-11T14:06:46.110Z,4.60
2024-01-11T14:09:13.740Z,4.80
2024-01-11T14:11:41.208Z,4.80
2024-01-11T14:14:08.693Z,4.70
2024-01-11T14:19:04.119Z,4.60
2024-01-11T14:21:33.454Z,4.80
2024-01-11T14:24:00.809Z,4.80
2024-01-11T14:26:28.212Z,4.80
2024-01-11T14:33:51.248Z,4.70
2024-01-11T14:36:18.873Z,4.60
2024-01-11T14:38:46.398Z,5.20
2024-01-11T14:41:15.099Z,4.80
2024-01-11T14:43:43.349Z,4.60
2024-01-11T14:46:12.091Z,4.70
2024-01-11T14:48:39.718Z,4.90
2024-01-11T14:51:08.845Z,4.60
2024-01-11T14:56:04.146Z,5.10
2024-01-11T14:58:31.674Z,5.10
2024-01-11T15:03:26.923Z,4.70
2024-01-11T15:05:54.711Z,4.70
2024-01-11T15:08:25.710Z,4.90
2024-01-11T15:10:53.268Z,4.90
2024-01-11T15:18:16.355Z,4.60
2024-01-11T15:20:43.900Z,5.10
2024-01-11T15:23:11.549Z,5.10
2024-01-11T15:25:38.880Z,5.40
2024-01-11T15:33:02.472Z,5.00
2024-01-11T15:35:30.415Z,5.00
2024-01-11T15:37:57.772Z,5.30
2024-01-11T15:40:25.106Z,5.10
2024-01-11T15:45:21.552Z,5.00
2024-01-11T15:52:45.842Z,5.00
2024-01-11T16:00:12.772Z,5.10
2024-01-11T16:02:43.916Z,4.90
2024-01-11T16:05:12.079Z,4.70
2024-01-11T16:07:39.993Z,4.90
2024-01-11T16:10:08.007Z,5.10
2024-01-11T16:12:35.385Z,5.10
2024-01-11T16:17:32.173Z,4.90
2024-01-11T16:19:59.854Z,4.90
2024-01-11T16:29:50.652Z,5.00
2024-01-11T16:32:19.175Z,5.10
2024-01-11T16:34:47.108Z,5.30
2024-01-11T16:37:15.421Z,5.00
2024-01-11T16:39:44.309Z,5.20
2024-01-11T16:44:40.971Z,5.00
2024-01-11T16:49:37.288Z,5.10
2024-01-11T16:52:06.130Z,5.20
2024-01-11T16:54:33.496Z,5.10
2024-01-11T16:57:00.982Z,5.10
2024-01-11T17:09:21.368Z,4.90
2024-01-11T17:14:17.098Z,5.10
2024-01-11T17:16:45.287Z,5.10
2024-01-11T17:21:41.471Z,4.80
2024-01-11T17:24:08.947Z,4.90
2024-01-11T17:26:37.262Z,4.90
2024-01-11T17:31:32.575Z,5.10
2024-01-11T17:34:00.373Z,5.30
2024-01-11T17:41:23.606Z,4.80
2024-01-11T17:46:28.782Z,5.00
2024-01-11T17:53:55.181Z,5.20
2024-01-11T17:56:22.843Z,5.30
2024-01-11T18:01:26.087Z,4.70
2024-01-11T18:03:53.889Z,5.40
2024-01-11T18:06:21.477Z,5.30
2024-01-11T18:11:18.266Z,5.40
2024-01-11T18:13:45.913Z,5.00
2024-01-11T18:18:43.699Z,5.40
2024-01-11T18:21:11.199Z,6.20
2024-01-11T18:23:38.542Z,5.30
2024-01-11T18:26:07.254Z,5.30
2024-01-11T18:28:36.319Z,5.50
2024-01-11T18:31:05.382Z,5.40
2024-01-11T18:33:33.194Z,5.40
2024-01-11T18:36:00.623Z,5.10
2024-01-11T18:38:27.939Z,5.20
2024-01-11T18:40:55.256Z,5.50
2024-01-11T18:48:20.003Z,5.40
2024-01-11T18:50:47.469Z,5.40
2024-01-11T18:53:14.949Z,5.40
2024-01-11T18:55:42.252Z,5.70
2024-01-11T19:00:38.189Z,5.30
2024-01-11T19:05:33.652Z,5.40
2024-01-11T19:10:28.752Z,5.60
2024-01-11T19:12:58.516Z,5.50
2024-01-11T19:15:25.824Z,5.20
2024-01-11T19:17:53.374Z,5.40
2024-01-11T19:20:21.037Z,5.70
2024-01-11T19:27:47.294Z,5.40
2024-01-11T19:30:15.174Z,5.60
2024-01-11T19:35:11.275Z,5.50
2024-01-11T19:40:07.043Z,5.50
2024-01-11T19:42:34.704Z,5.50
2024-01-11T19:45:02.290Z,5.60
2024-01-11T19:49:57.701Z,5.30
2024-01-11T19:52:25.099Z,5.70
2024-01-11T19:54:53.000Z,5.80
2024-01-11T19:59:49.411Z,5.60
2024-01-11T20:02:16.846Z,6.20
2024-01-11T20:04:44.294Z,5.60
2024-01-11T20:07:11.759Z,5.70
2024-01-11T20:09:39.311Z,5.70
2024-01-11T20:14:35.443Z,5.20
2024-01-11T20:19:32.231Z,5.50
2024-01-11T20:22:00.182Z,5.60
2024-01-11T20:24:28.130Z,5.40
2024-01-11T20:26:55.669Z,5.40
2024-01-11T20:29:26.456Z,5.30
2024-01-11T20:31:53.802Z,5.50
2024-01-11T20:34:21.276Z,5.40
2024-01-11T20:36:48.721Z,5.50
2024-01-11T20:39:16.153Z,5.80
2024-01-11T20:41:46.087Z,5.30
2024-01-11T20:46:41.261Z,5.60
2024-01-11T20:49:08.711Z,5.80
2024-01-11T20:51:42.573Z,5.40
2024-01-11T20:54:09.836Z,5.50
2024-01-11T20:56:45.308Z,5.30
2024-01-11T20:59:12.855Z,5.50
2024-01-11T21:01:40.278Z,5.50
2024-01-11T21:04:07.628Z,5.50
2024-01-11T21:06:35.120Z,5.50
2024-01-11T21:09:03.337Z,5.50
2024-01-11T21:11:30.741Z,5.40
2024-01-11T21:13:59.729Z,5.50
2024-01-11T21:16:28.732Z,5.50
2024-01-11T21:18:56.338Z,5.50
2024-01-11T21:21:24.379Z,5.50
2024-01-11T21:24:02.539Z,5.50
2024-01-11T21:26:30.529Z,5.50
2024-01-11T21:28:58.020Z,5.50
2024-01-11T21:31:28.540Z,5.50
2024-01-11T21:33:56.638Z,5.50
2024-01-11T21:36:24.165Z,5.50
2024-01-11T21:38:56.586Z,5.50
2024-01-11T21:41:28.711Z,5.50
2024-01-11T21:43:56.313Z,5.50
2024-01-11T21:46:24.624Z,5.50
2024-01-11T21:48:52.127Z,5.50
2024-01-11T21:51:19.693Z,5.50
2024-01-11T21:53:47.165Z,5.50
2024-01-11T21:56:14.773Z,5.50
2024-01-11T21:58:42.181Z,5.50
2024-01-11T22:01:09.489Z,5.60
2024-01-11T22:03:36.940Z,5.60
2024-01-11T22:06:05.083Z,5.60
2024-01-11T22:08:32.658Z,5.60
2024-01-11T22:10:59.941Z,5.60
2024-01-11T22:13:27.289Z,5.60
2024-01-11T22:15:54.934Z,5.60
2024-01-11T22:18:22.412Z,5.60
2024-01-11T22:20:50.203Z,5.60
2024-01-11T22:23:17.632Z,5.60
2024-01-11T22:25:44.968Z,5.60
2024-01-11T22:28:12.444Z,5.60
2024-01-11T22:30:39.835Z,5.60
2024-01-11T22:33:07.926Z,5.60
2024-01-11T22:35:36.120Z,5.60
2024-01-11T22:38:03.794Z,5.60
2024-01-11T22:40:31.203Z,5.60
2024-01-11T22:42:58.536Z,5.60
2024-01-11T22:45:25.877Z,5.60
2024-01-11T22:47:53.311Z,5.60
2024-01-11T22:50:21.201Z,5.60
2024-01-11T22:52:48.532Z,5.60
2024-01-11T22:55:15.942Z,5.70
2024-01-11T22:57:43.632Z,5.70
2024-01-11T23:00:22.283Z,5.60
2024-01-11T23:02:51.086Z,5.60
2024-01-11T23:05:19.804Z,5.60
2024-01-11T23:07:48.310Z,5.60
2024-01-11T23:10:17.092Z,5.60
2024-01-11T23:12:45.231Z,5.70
2024-01-11T23:15:12.842Z,5.70
2024-01-11T23:17:40.415Z,5.70
2024-01-11T23:20:09.026Z,5.70
2024-01-11T23:22:36.789Z,5.70
2024-01-11T23:25:04.434Z,5.80
2024-01-11T23:27:31.820Z,5.50
2024-01-11T23:32:29.752Z,5.60
2024-01-11T23:37:24.908Z,5.80
2024-01-11T23:44:48.440Z,5.80
2024-01-11T23:47:16.041Z,5.50
2024-01-11T23:49:43.391Z,5.80
2024-01-11T23:52:11.350Z,5.80
2024-01-11T23:54:38.624Z,5.70
